Terminal Aerodrome Forecast
Issued by NWS Charleston, WV

Current Version | Previous Version | Graphics & Text | Print | Product List | Glossary On
Versions: 1 2 3 4 5 6 7 8 9 10 11 12 13 14 15 16 17 18 19 20 21 22
000
FTUS41 KRLX 251100
TAFEKN
TAF
KEKN 251133Z 2512/2612 24007KT P6SM SCT035
     FM252300 00000KT P6SM BKN250
     FM260500 00000KT P6SM BKN030
     FM260900 00000KT 4SM -RA BR OVC050
     FM261100 00000KT 2SM -RASN OVC007=

USA.gov is the U.S. government's official web portal to all federal, state and local government web resources and services.